METAR Data
IDs: Format: Raw Decoded Include TAF

Data at: 0003 UTC 25 Apr 2019

PAHN 242354Z AUTO 12009G17KT 10SM CLR 06/M02 A3029 RMK AO2 SLP260 60000 T00561017 10067 20039 52005 TSNO
PAHN 242254Z AUTO 12012G19KT 10SM SCT085 SCT110 05/M01 A3029 RMK AO2 SLP258 T00501011 TSNO
PAHN 242154Z AUTO 12010G20KT 10SM FEW070 SCT090 06/M01 A3028 RMK AO2 SLP257 T00561011 TSNO
PAHN 242054Z AUTO 13012G18KT 10SM OVC065 06/M02 A3028 RMK AO2 SLP255 60000 T00561017 53013 TSNO
PAHN 241954Z AUTO 13013G20KT 10SM BKN060 06/M01 A3026 RMK AO2 RAB07E17 SLP249 P0000 T00611006 TSNO
PAHN 241854Z AUTO 13015KT 10SM FEW040 OVC065 04/00 A3025 RMK AO2 RAB00E11 SLP247 P0000 T00440000 TSNO
PAHN 241754Z AUTO VRB06KT 10SM SCT032 SCT039 04/M02 A3024 RMK AO2 SLP242 T00391017 10044 20011 51014 TSNO
PAHN 241654Z AUTO VRB04KT 10SM FEW021 BKN075 04/M01 A3023 RMK AO2 SLP238 T00441011 TSNO
PAHN 241554Z AUTO 30004KT 10SM FEW017 01/M02 A3022 RMK AO2 SLP235 T00111017 TSNO
PAHN 241533Z AUTO 00000KT 10SM SCT019 01/M02 A3021 RMK AO2 T00111017 TSNO
PAHN 241454Z AUTO 13007KT 10SM OVC016 02/M01 A3020 RMK AO2 SLP228 T00171011 53014 TSNO
PAHN 241425Z AUTO 00000KT 10SM OVC015 02/M01 A3019 RMK AO2 T00171011 TSNO
PAHN 241354Z AUTO 08007KT 10SM OVC013 02/M01 A3019 RMK AO2 SLP224 T00171006 TSNO
PAHN 241306Z AUTO 10007KT 10SM BKN014 02/M01 A3017 RMK AO2 T00171006 TSNO
PAHN 241254Z AUTO 11008KT 10SM SCT014 02/M01 A3017 RMK AO2 SLP218 T00171006 TSNO
PAHN 241228Z AUTO 11007G17KT 10SM SCT017 02/M01 A3017 RMK AO2 T00171011 TSNO
PAHN 241154Z AUTO 11007G17KT 10SM BKN015 OVC020 02/M01 A3016 RMK AO2 SLP215 70013 T00221006 10033 20017 51013 TSNO
PAHN 241146Z AUTO 10011G17KT 10SM BKN014 BKN022 02/M01 A3016 RMK AO2 T00221006 TSNO
PAHN 241139Z AUTO 10008G17KT 10SM SCT014 BKN020 02/M01 A3016 RMK AO2 T00221006 TSNO
PAHN 241054Z AUTO 06007KT 360V090 10SM FEW021 02/M02 A3015 RMK AO2 SLP211 T00221017 TSNO
PAHN 241040Z AUTO 09008KT 10SM FEW021 02/M02 A3015 RMK AO2 T00171017 TSNO
PAHN 241016Z AUTO 10005KT 10SM SCT021 BKN027 02/M01 A3015 RMK AO2 T00221011 TSNO
PAHN 240954Z AUTO 10007KT 10SM FEW021 02/M01 A3014 RMK AO2 SLP208 T00221011 TSNO
PAHN 240854Z AUTO 11007G17KT 070V140 10SM FEW070 02/M01 A3012 RMK AO2 SLP202 T00221011 400720022 53024 TSNO
PAHN 240754Z AUTO 09008G16KT 060V120 10SM CLR 02/M01 A3009 RMK AO2 SLP193 T00221011 TSNO
PAHN 240654Z AUTO 11009G17KT 10SM FEW025 SCT055 BKN085 03/M01 A3008 RMK AO2 SLP187 T00281006 TSNO
PAHN 240554Z AUTO 11007KT 10SM FEW050 OVC070 03/M03 A3005 RMK AO2 SLP178 60000 T00281028 10067 20028 53024 TSNO
PAHN 240454Z AUTO 11011G22KT 10SM BKN070 OVC085 03/M01 A3002 RMK AO2 SLP168 T00331011 TSNO
PAHN 240354Z AUTO 11012G21KT 070V140 10SM CLR 03/M01 A2999 RMK AO2 SLP159 T00331006 TSNO
PAHN 240254Z AUTO 11011G20KT 10SM OVC065 05/M01 A2998 RMK AO2 SLP154 60000 T00501006 51015 TSNO
PAHN 240154Z AUTO 12011G23KT 10SM BKN075 04/01 A2998 RMK AO2 PK WND 13026/0144 RAB06E16 SLP153 P0000 T00390011 TSNO
PAHN 240054Z AUTO 12017G29KT 10SM OVC065 04/01 A2996 RMK AO2 PK WND 14029/0048 SLP146 T00440011 TSNO
PAHN 232354Z AUTO 12014G25KT 10SM OVC070 07/01 A2994 RMK SLP139 T00670011 10072 20050 51016 TSNO VIA AUTODIAL
PAHN 232254Z AUTO 14016G26KT 10SM BKN070 06/01 A2992 RMK AO2 PK WND 14027/2155 SLP135 T00610011 TSNO
PAHN 232154Z AUTO 14017G24KT 10SM BKN070 BKN080 07/01 A2991 RMK PK WND 13028/2056 SLP132 T00670006 TSNO VIA AUTODIAL
PAHN 232054Z AUTO 13017G25KT 10SM OVC080 06/00 A2989 RMK AO2 PK WND 13027/2001 SLP124 T00610000 51024 TSNO
PAHN 231954Z AUTO 12015G24KT 10SM OVC075 07/01 A2987 RMK AO2 PK WND 13032/1905 SLP116 T00720006 TSNO
PAHN 231854Z AUTO 12017G29KT 10SM CLR 07/M01 A2985 RMK AO2 PK WND 14030/1842 SLP109 T00671006 TSNO
PAHN 231754Z AUTO 12015G24KT 10SM SCT070 BKN085 06/01 A2982 RMK AO2 PK WND 13028/1734 RAB06E09 SLP100 P0000 60013 T00560006 10061 20028 53020 TSNO
PAHN 231654Z AUTO 12013G22KT 090V160 10SM SCT016 SCT026 BKN080 05/02 A2979 RMK AO2 PK WND 12028/1604 RAE30 SLP090 P0000 T00500017 TSNO
PAHN 231629Z AUTO 11012G26KT 10SM -RA OVC015 05/03 A2979 RMK AO2 PK WND 12028/1604 P0000 T00500028 TSNO
PAHN 231554Z AUTO 11016G30KT 6SM -RA BR OVC014 03/02 A2978 RMK AO2 PK WND 11030/1549 SLP087 P0003 T00330017 TSNO
PAHN 231454Z AUTO 11011G28KT 5SM -RA BR BKN011 OVC016 03/02 A2976 RMK AO2 PK WND 10028/1449 SLP080 P0002 60010 T00330017 58006 TSNO
PAHN 231418Z AUTO 10011G23KT 6SM -RA BR OVC009 03/01 A2975 RMK AO2 P0001 T00280011 TSNO
PAHN 231354Z AUTO 10013G22KT 7SM -RA OVC012 03/01 A2976 RMK AO2 PK WND 11029/1338 SLP081 P0005 T00280011 TSNO
PAHN 231328Z AUTO 10009G21KT 5SM RA BR BKN014 OVC019 03/01 A2977 RMK AO2 P0003 T00280011 TSNO
PAHN 231254Z AUTO 11011G24KT 060V130 9SM -RA BKN017 OVC022 03/01 A2978 RMK AO2 PK WND 12026/1213 SLP087 P0003 T00330011 TSNO
PAHN 231211Z AUTO 10014G21KT 10SM -RA SCT013 OVC020 03/02 A2979 RMK AO2 P0000 T00330017 TSNO